sensor_id;sensor_type;location;lat;lon;timestamp;pressure;altitude;pressure_sealevel;temperature;humidity
31183;BME280;17813;0.000;0.000;2023-08-07T00:02:12;98384.78;;;16.18;85.55
31183;BME280;17813;0.000;0.000;2023-08-07T00:04:39;98375.75;;;16.19;85.14
31183;BME280;17813;0.000;0.000;2023-08-07T00:07:06;98379.28;;;16.19;85.38
31183;BME280;17813;0.000;0.000;2023-08-07T00:09:36;98379.38;;;16.10;85.33
31183;BME280;17813;0.000;0.000;2023-08-07T00:12:03;98382.19;;;16.08;85.45
31183;BME280;17813;0.000;0.000;2023-08-07T00:14:30;98381.22;;;16.09;85.35
31183;BME280;17813;0.000;0.000;2023-08-07T00:16:57;98383.19;;;16.07;85.60
31183;BME280;17813;0.000;0.000;2023-08-07T00:19:24;98376.00;;;16.07;85.21
31183;BME280;17813;0.000;0.000;2023-08-07T00:21:51;98381.00;;;16.02;85.53
31183;BME280;17813;0.000;0.000;2023-08-07T00:24:18;98378.63;;;15.99;85.86
31183;BME280;17813;0.000;0.000;2023-08-07T00:26:45;98379.47;;;16.00;85.52
31183;BME280;17813;0.000;0.000;2023-08-07T00:29:12;98392.41;;;15.87;86.08
31183;BME280;17813;0.000;0.000;2023-08-07T00:31:40;98392.09;;;15.90;86.26
31183;BME280;17813;0.000;0.000;2023-08-07T00:34:06;98386.59;;;15.91;86.45
31183;BME280;17813;0.000;0.000;2023-08-07T00:36:33;98383.75;;;15.93;86.63
31183;BME280;17813;0.000;0.000;2023-08-07T00:39:02;98388.72;;;15.88;86.59
31183;BME280;17813;0.000;0.000;2023-08-07T00:41:30;98385.22;;;15.87;86.32
31183;BME280;17813;0.000;0.000;2023-08-07T00:43:57;98395.00;;;15.79;87.16
31183;BME280;17813;0.000;0.000;2023-08-07T00:46:24;98384.47;;;15.77;87.18
31183;BME280;17813;0.000;0.000;2023-08-07T00:48:52;98384.78;;;15.74;86.89
31183;BME280;17813;0.000;0.000;2023-08-07T00:51:23;98391.78;;;15.75;86.71
31183;BME280;17813;0.000;0.000;2023-08-07T00:53:52;98386.91;;;15.70;87.16
31183;BME280;17813;0.000;0.000;2023-08-07T00:56:19;98391.09;;;15.73;87.06
31183;BME280;17813;0.000;0.000;2023-08-07T00:58:46;98389.28;;;15.73;87.23
31183;BME280;17813;0.000;0.000;2023-08-07T01:01:13;98391.63;;;15.77;86.58
31183;BME280;17813;0.000;0.000;2023-08-07T01:03:41;98392.19;;;15.80;86.52
31183;BME280;17813;0.000;0.000;2023-08-07T01:06:08;98391.88;;;15.83;86.54
31183;BME280;17813;0.000;0.000;2023-08-07T01:08:38;98396.53;;;15.81;86.71
31183;BME280;17813;0.000;0.000;2023-08-07T01:11:20;98395.38;;;15.84;86.47
31183;BME280;17813;0.000;0.000;2023-08-07T01:13:59;98385.59;;;15.74;86.73
31183;BME280;17813;0.000;0.000;2023-08-07T01:19:25;98384.78;;;15.74;86.77
31183;BME280;17813;0.000;0.000;2023-08-07T01:22:06;98397.59;;;15.70;86.92
31183;BME280;17813;0.000;0.000;2023-08-07T01:24:37;98393.31;;;15.78;86.63
31183;BME280;17813;0.000;0.000;2023-08-07T01:30:12;98389.59;;;15.70;86.88
31183;BME280;17813;0.000;0.000;2023-08-07T01:32:54;98383.94;;;15.73;87.34
31183;BME280;17813;0.000;0.000;2023-08-07T01:35:26;98390.28;;;15.72;87.49
31183;BME280;17813;0.000;0.000;2023-08-07T01:37:57;98395.47;;;15.74;87.45
31183;BME280;17813;0.000;0.000;2023-08-07T01:40:25;98395.16;;;15.77;87.35
31183;BME280;17813;0.000;0.000;2023-08-07T01:42:53;98400.44;;;15.69;88.02
31183;BME280;17813;0.000;0.000;2023-08-07T01:45:28;98399.91;;;15.65;87.63
31183;BME280;17813;0.000;0.000;2023-08-07T01:47:56;98400.44;;;15.69;87.80
31183;BME280;17813;0.000;0.000;2023-08-07T01:50:23;98397.75;;;15.69;87.73
31183;BME280;17813;0.000;0.000;2023-08-07T01:52:51;98402.09;;;15.70;87.83
31183;BME280;17813;0.000;0.000;2023-08-07T01:55:19;98392.72;;;15.66;87.88
31183;BME280;17813;0.000;0.000;2023-08-07T01:57:46;98406.06;;;15.66;88.31
31183;BME280;17813;0.000;0.000;2023-08-07T02:00:13;98406.31;;;15.72;87.77
31183;BME280;17813;0.000;0.000;2023-08-07T02:02:40;98408.69;;;15.75;87.62
31183;BME280;17813;0.000;0.000;2023-08-07T02:05:07;98400.13;;;15.72;87.53
31183;BME280;17813;0.000;0.000;2023-08-07T02:07:34;98402.09;;;15.70;87.88
31183;BME280;17813;0.000;0.000;2023-08-07T02:10:00;98399.44;;;15.70;87.77
31183;BME280;17813;0.000;0.000;2023-08-07T02:12:27;98402.94;;;15.70;88.05
31183;BME280;17813;0.000;0.000;2023-08-07T02:14:59;98406.47;;;15.71;88.04
31183;BME280;17813;0.000;0.000;2023-08-07T02:17:28;98415.16;;;15.73;87.73
31183;BME280;17813;0.000;0.000;2023-08-07T02:19:56;98410.50;;;15.75;87.90
31183;BME280;17813;0.000;0.000;2023-08-07T02:22:27;98408.13;;;15.72;87.97
31183;BME280;17813;0.000;0.000;2023-08-07T02:24:54;98411.34;;;15.75;87.95
31183;BME280;17813;0.000;0.000;2023-08-07T02:27:21;98414.56;;;15.79;88.05
31183;BME280;17813;0.000;0.000;2023-08-07T02:29:48;98416.84;;;15.74;88.58
31183;BME280;17813;0.000;0.000;2023-08-07T02:32:17;98422.34;;;15.72;88.38
31183;BME280;17813;0.000;0.000;2023-08-07T02:34:45;98422.34;;;15.72;88.27
31183;BME280;17813;0.000;0.000;2023-08-07T02:37:12;98427.22;;;15.77;88.19
31183;BME280;17813;0.000;0.000;2023-08-07T02:39:39;98429.75;;;15.79;87.91
31183;BME280;17813;0.000;0.000;2023-08-07T02:42:06;98431.28;;;15.81;87.73
31183;BME280;17813;0.000;0.000;2023-08-07T02:44:33;98419.81;;;15.71;88.13
31183;BME280;17813;0.000;0.000;2023-08-07T02:47:00;98435.25;;;15.77;87.90
31183;BME280;17813;0.000;0.000;2023-08-07T02:49:26;98438.38;;;15.72;87.88
31183;BME280;17813;0.000;0.000;2023-08-07T02:51:53;98433.25;;;15.79;87.94
31183;BME280;17813;0.000;0.000;2023-08-07T02:54:20;98438.38;;;15.72;87.95
31183;BME280;17813;0.000;0.000;2023-08-07T02:56:47;98433.09;;;15.81;87.78
31183;BME280;17813;0.000;0.000;2023-08-07T02:59:15;98439.44;;;15.80;87.36
31183;BME280;17813;0.000;0.000;2023-08-07T03:01:44;98435.94;;;15.79;87.10
31183;BME280;17813;0.000;0.000;2023-08-07T03:04:11;98444.41;;;15.74;87.05
31183;BME280;17813;0.000;0.000;2023-08-07T03:06:37;98447.78;;;15.77;87.07
31183;BME280;17813;0.000;0.000;2023-08-07T03:09:04;98441.75;;;15.74;86.83
31183;BME280;17813;0.000;0.000;2023-08-07T03:11:31;98449.00;;;15.64;87.20
31183;BME280;17813;0.000;0.000;2023-08-07T03:13:58;98447.84;;;15.67;87.13
31183;BME280;17813;0.000;0.000;2023-08-07T03:16:28;98457.59;;;15.58;87.28
31183;BME280;17813;0.000;0.000;2023-08-07T03:18:54;98456.59;;;15.59;87.51
31183;BME280;17813;0.000;0.000;2023-08-07T03:21:21;98459.13;;;15.61;87.24
31183;BME280;17813;0.000;0.000;2023-08-07T03:23:48;98459.41;;;15.58;87.57
31183;BME280;17813;0.000;0.000;2023-08-07T03:26:15;98456.84;;;15.56;87.66
31183;BME280;17813;0.000;0.000;2023-08-07T03:28:41;98464.59;;;15.59;87.07
31183;BME280;17813;0.000;0.000;2023-08-07T03:31:08;98470.09;;;15.58;87.14
31183;BME280;17813;0.000;0.000;2023-08-07T03:33:35;98470.38;;;15.55;87.51
31183;BME280;17813;0.000;0.000;2023-08-07T03:36:05;98472.06;;;15.56;86.75
31183;BME280;17813;0.000;0.000;2023-08-07T03:38:32;98480.50;;;15.51;86.91
31183;BME280;17813;0.000;0.000;2023-08-07T03:40:59;98474.38;;;15.41;86.69
31183;BME280;17813;0.000;0.000;2023-08-07T03:43:26;98480.28;;;15.44;86.95
31183;BME280;17813;0.000;0.000;2023-08-07T03:45:55;98489.56;;;15.40;86.81
31183;BME280;17813;0.000;0.000;2023-08-07T03:48:23;98483.53;;;15.38;86.57
31183;BME280;17813;0.000;0.000;2023-08-07T03:50:50;98488.34;;;15.35;87.02
31183;BME280;17813;0.000;0.000;2023-08-07T03:53:16;98485.97;;;15.32;86.79
31183;BME280;17813;0.000;0.000;2023-08-07T03:55:43;98494.97;;;15.31;86.38
31183;BME280;17813;0.000;0.000;2023-08-07T03:58:15;98497.50;;;15.32;86.04
31183;BME280;17813;0.000;0.000;2023-08-07T04:00:42;98497.34;;;15.34;86.58
31183;BME280;17813;0.000;0.000;2023-08-07T04:03:09;98502.53;;;15.35;86.06
31183;BME280;17813;0.000;0.000;2023-08-07T04:05:36;98508.03;;;15.34;86.03
31183;BME280;17813;0.000;0.000;2023-08-07T04:08:03;98517.03;;;15.33;85.94
31183;BME280;17813;0.000;0.000;2023-08-07T04:10:29;98518.47;;;15.27;86.01
31183;BME280;17813;0.000;0.000;2023-08-07T04:12:56;98521.84;;;15.29;86.33
31183;BME280;17813;0.000;0.000;2023-08-07T04:15:23;98513.81;;;15.29;85.81
31183;BME280;17813;0.000;0.000;2023-08-07T04:17:50;98526.19;;;15.30;86.35
31183;BME280;17813;0.000;0.000;2023-08-07T04:20:16;98528.00;;;15.30;85.80
31183;BME280;17813;0.000;0.000;2023-08-07T04:22:43;98523.81;;;15.27;86.04
31183;BME280;17813;0.000;0.000;2023-08-07T04:25:11;98523.56;;;15.21;86.64
31183;BME280;17813;0.000;0.000;2023-08-07T04:27:38;98527.75;;;15.23;86.24
31183;BME280;17813;0.000;0.000;2023-08-07T04:30:06;98528.06;;;15.20;86.04
31183;BME280;17813;0.000;0.000;2023-08-07T04:32:33;98531.56;;;15.21;85.79
31183;BME280;17813;0.000;0.000;2023-08-07T04:35:00;98542.34;;;15.29;85.85
31183;BME280;17813;0.000;0.000;2023-08-07T04:37:28;98541.22;;;15.31;85.27
31183;BME280;17813;0.000;0.000;2023-08-07T04:39:59;98547.94;;;15.35;85.39
31183;BME280;17813;0.000;0.000;2023-08-07T04:42:28;98552.31;;;15.36;84.99
31183;BME280;17813;0.000;0.000;2023-08-07T04:44:55;98550.91;;;15.32;84.73
31183;BME280;17813;0.000;0.000;2023-08-07T04:47:21;98549.50;;;15.38;84.54
31183;BME280;17813;0.000;0.000;2023-08-07T04:49:48;98556.25;;;15.32;84.59
31183;BME280;17813;0.000;0.000;2023-08-07T04:52:15;98559.78;;;15.33;84.84
31183;BME280;17813;0.000;0.000;2023-08-07T04:54:42;98554.56;;;15.31;84.96
31183;BME280;17813;0.000;0.000;2023-08-07T04:57:09;98567.50;;;15.36;84.69
31183;BME280;17813;0.000;0.000;2023-08-07T04:59:35;98563.97;;;15.35;84.32
31183;BME280;17813;0.000;0.000;2023-08-07T05:02:04;98572.53;;;15.39;84.16
31183;BME280;17813;0.000;0.000;2023-08-07T05:04:31;98572.94;;;15.44;84.08
31183;BME280;17813;0.000;0.000;2023-08-07T05:06:58;98567.59;;;15.44;84.16
31183;BME280;17813;0.000;0.000;2023-08-07T05:09:24;98568.72;;;15.41;84.18
31183;BME280;17813;0.000;0.000;2023-08-07T05:11:51;98570.28;;;15.44;84.43
31183;BME280;17813;0.000;0.000;2023-08-07T05:14:18;98573.50;;;15.48;84.58
31183;BME280;17813;0.000;0.000;2023-08-07T05:16:46;98574.78;;;15.43;85.06
31183;BME280;17813;0.000;0.000;2023-08-07T05:19:12;98575.91;;;15.41;85.05
31183;BME280;17813;0.000;0.000;2023-08-07T05:21:39;98573.97;;;15.33;85.71
31183;BME280;17813;0.000;0.000;2023-08-07T05:24:06;98586.19;;;15.36;85.97
31183;BME280;17813;0.000;0.000;2023-08-07T05:26:33;98576.47;;;15.44;85.53
31183;BME280;17813;0.000;0.000;2023-08-07T05:28:59;98585.84;;;15.49;85.27
31183;BME280;17813;0.000;0.000;2023-08-07T05:31:26;98588.53;;;15.49;85.38
31183;BME280;17813;0.000;0.000;2023-08-07T05:33:53;98582.91;;;15.52;85.49
31183;BME280;17813;0.000;0.000;2023-08-07T05:36:20;98591.31;;;15.57;85.21
31183;BME280;17813;0.000;0.000;2023-08-07T05:38:47;98589.91;;;15.53;85.47
31183;BME280;17813;0.000;0.000;2023-08-07T05:41:14;98602.59;;;15.51;85.20
31183;BME280;17813;0.000;0.000;2023-08-07T05:43:40;98604.72;;;15.47;85.33
31183;BME280;17813;0.000;0.000;2023-08-07T05:46:08;98603.56;;;15.50;85.36
31183;BME280;17813;0.000;0.000;2023-08-07T05:48:38;98608.38;;;15.46;85.22
31183;BME280;17813;0.000;0.000;2023-08-07T05:51:05;98606.41;;;15.48;85.21
31183;BME280;17813;0.000;0.000;2023-08-07T05:53:34;98605.56;;;15.48;85.29
31183;BME280;17813;0.000;0.000;2023-08-07T05:56:01;98611.44;;;15.51;85.55
31183;BME280;17813;0.000;0.000;2023-08-07T05:58:28;98612.00;;;15.55;85.63
31183;BME280;17813;0.000;0.000;2023-08-07T06:00:55;98616.22;;;15.57;85.46
31183;BME280;17813;0.000;0.000;2023-08-07T06:03:22;98620.19;;;15.63;84.79
31183;BME280;17813;0.000;0.000;2023-08-07T06:05:50;98625.94;;;15.58;84.80
31183;BME280;17813;0.000;0.000;2023-08-07T06:08:16;98627.03;;;15.56;84.95
31183;BME280;17813;0.000;0.000;2023-08-07T06:10:43;98629.31;;;15.51;85.14
31183;BME280;17813;0.000;0.000;2023-08-07T06:13:10;98644.09;;;15.45;85.87
31183;BME280;17813;0.000;0.000;2023-08-07T06:15:37;98641.97;;;15.49;85.43
31183;BME280;17813;0.000;0.000;2023-08-07T06:18:04;98642.81;;;15.49;85.67
31183;BME280;17813;0.000;0.000;2023-08-07T06:20:30;98629.88;;;15.44;85.73
31183;BME280;17813;0.000;0.000;2023-08-07T06:22:57;98635.94;;;15.47;85.44
31183;BME280;17813;0.000;0.000;2023-08-07T06:25:24;98636.06;;;15.45;85.71
31183;BME280;17813;0.000;0.000;2023-08-07T06:27:51;98640.00;;;15.51;85.75
31183;BME280;17813;0.000;0.000;2023-08-07T06:30:18;98639.69;;;15.54;85.35
31183;BME280;17813;0.000;0.000;2023-08-07T06:32:45;98635.78;;;15.58;85.77
31183;BME280;17813;0.000;0.000;2023-08-07T06:35:11;98640.28;;;15.67;85.32
31183;BME280;17813;0.000;0.000;2023-08-07T06:37:38;98647.47;;;15.66;85.32
31183;BME280;17813;0.000;0.000;2023-08-07T06:40:05;98644.03;;;15.74;85.39
31183;BME280;17813;0.000;0.000;2023-08-07T06:42:32;98645.69;;;15.85;84.80
31183;BME280;17813;0.000;0.000;2023-08-07T06:44:59;98648.59;;;15.91;84.69
31183;BME280;17813;0.000;0.000;2023-08-07T06:47:26;98641.22;;;16.03;84.14
31183;BME280;17813;0.000;0.000;2023-08-07T06:49:53;98642.84;;;16.14;84.34
31183;BME280;17813;0.000;0.000;2023-08-07T06:52:19;98642.66;;;16.25;83.93
31183;BME280;17813;0.000;0.000;2023-08-07T06:54:46;98644.66;;;16.40;83.40
31183;BME280;17813;0.000;0.000;2023-08-07T06:57:13;98647.47;;;16.39;82.69
31183;BME280;17813;0.000;0.000;2023-08-07T06:59:40;98640.84;;;16.61;82.34
31183;BME280;17813;0.000;0.000;2023-08-07T07:02:06;98646.69;;;16.74;82.30
31183;BME280;17813;0.000;0.000;2023-08-07T07:04:33;98654.47;;;16.85;82.48
31183;BME280;17813;0.000;0.000;2023-08-07T07:07:00;98655.31;;;16.86;81.75
31183;BME280;17813;0.000;0.000;2023-08-07T07:09:27;98663.41;;;16.94;81.60
31183;BME280;17813;0.000;0.000;2023-08-07T07:11:56;98672.06;;;17.06;81.18
31183;BME280;17813;0.000;0.000;2023-08-07T07:14:24;98666.06;;;17.12;80.26
31183;BME280;17813;0.000;0.000;2023-08-07T07:16:51;98676.31;;;17.16;79.82
31183;BME280;17813;0.000;0.000;2023-08-07T07:19:18;98673.81;;;17.15;79.55
31183;BME280;17813;0.000;0.000;2023-08-07T07:21:44;98686.41;;;17.22;79.38
31183;BME280;17813;0.000;0.000;2023-08-07T07:24:13;98680.81;;;17.33;79.34
31183;BME280;17813;0.000;0.000;2023-08-07T07:26:39;98674.25;;;17.54;78.58
31183;BME280;17813;0.000;0.000;2023-08-07T07:29:06;98687.97;;;17.77;78.19
31183;BME280;17813;0.000;0.000;2023-08-07T07:31:33;98686.34;;;17.84;76.22
31183;BME280;17813;0.000;0.000;2023-08-07T07:34:00;98686.38;;;17.92;76.96
31183;BME280;17813;0.000;0.000;2023-08-07T07:36:27;98689.88;;;17.84;77.00
31183;BME280;17813;0.000;0.000;2023-08-07T07:38:54;98688.53;;;17.88;77.25
31183;BME280;17813;0.000;0.000;2023-08-07T07:41:21;98687.03;;;17.86;77.04
31183;BME280;17813;0.000;0.000;2023-08-07T07:43:49;98691.59;;;17.93;76.87
31183;BME280;17813;0.000;0.000;2023-08-07T07:46:15;98690.38;;;17.88;76.97
31183;BME280;17813;0.000;0.000;2023-08-07T07:48:44;98703.59;;;17.81;76.75
31183;BME280;17813;0.000;0.000;2023-08-07T07:51:11;98707.63;;;17.85;76.69
31183;BME280;17813;0.000;0.000;2023-08-07T07:53:37;98704.59;;;17.80;76.71
31183;BME280;17813;0.000;0.000;2023-08-07T07:56:04;98705.19;;;17.66;75.48
31183;BME280;17813;0.000;0.000;2023-08-07T07:58:32;98714.50;;;17.62;76.20
31183;BME280;17813;0.000;0.000;2023-08-07T08:00:58;98723.06;;;17.65;76.45
31183;BME280;17813;0.000;0.000;2023-08-07T08:03:25;98731.13;;;17.65;75.62
31183;BME280;17813;0.000;0.000;2023-08-07T08:05:52;98724.03;;;17.56;75.27
31183;BME280;17813;0.000;0.000;2023-08-07T08:08:20;98731.31;;;17.46;76.22
31183;BME280;17813;0.000;0.000;2023-08-07T08:10:47;98729.31;;;17.48;75.99
31183;BME280;17813;0.000;0.000;2023-08-07T08:13:17;98734.91;;;17.55;75.84
31183;BME280;17813;0.000;0.000;2023-08-07T08:15:45;98740.94;;;17.57;75.73
31183;BME280;17813;0.000;0.000;2023-08-07T08:18:12;98738.72;;;17.70;76.37
31183;BME280;17813;0.000;0.000;2023-08-07T08:20:39;98731.25;;;17.82;75.63
31183;BME280;17813;0.000;0.000;2023-08-07T08:23:06;98749.50;;;17.78;74.48
31183;BME280;17813;0.000;0.000;2023-08-07T08:25:33;98748.13;;;17.74;74.22
31183;BME280;17813;0.000;0.000;2023-08-07T08:28:00;98756.66;;;17.70;74.71
31183;BME280;17813;0.000;0.000;2023-08-07T08:30:27;98752.44;;;17.67;74.42
31183;BME280;17813;0.000;0.000;2023-08-07T08:32:55;98759.94;;;17.63;74.49
31183;BME280;17813;0.000;0.000;2023-08-07T08:35:24;98758.81;;;17.66;74.34
31183;BME280;17813;0.000;0.000;2023-08-07T08:37:51;98749.44;;;17.70;74.70
31183;BME280;17813;0.000;0.000;2023-08-07T08:40:18;98759.66;;;17.66;74.96
31183;BME280;17813;0.000;0.000;2023-08-07T08:42:48;98762.44;;;17.65;74.72
31183;BME280;17813;0.000;0.000;2023-08-07T08:45:15;98758.50;;;17.69;74.67
31183;BME280;17813;0.000;0.000;2023-08-07T08:47:43;98756.25;;;17.64;74.68
31183;BME280;17813;0.000;0.000;2023-08-07T08:50:13;98758.03;;;17.74;74.29
31183;BME280;17813;0.000;0.000;2023-08-07T08:52:45;98762.75;;;17.80;73.81
31183;BME280;17813;0.000;0.000;2023-08-07T08:55:13;98764.53;;;17.97;74.11
31183;BME280;17813;0.000;0.000;2023-08-07T08:57:40;98766.31;;;18.14;73.05
31183;BME280;17813;0.000;0.000;2023-08-07T09:00:08;98768.25;;;18.30;72.48
31183;BME280;17813;0.000;0.000;2023-08-07T09:02:48;98764.16;;;18.52;72.66
31183;BME280;17813;0.000;0.000;2023-08-07T09:05:16;98764.44;;;18.75;72.28
31183;BME280;17813;0.000;0.000;2023-08-07T09:07:44;98765.53;;;19.31;71.55
31183;BME280;17813;0.000;0.000;2023-08-07T09:10:14;98765.88;;;19.76;68.89
31183;BME280;17813;0.000;0.000;2023-08-07T09:12:50;98772.06;;;19.93;67.22
31183;BME280;17813;0.000;0.000;2023-08-07T09:15:20;98765.09;;;20.23;68.08
31183;BME280;17813;0.000;0.000;2023-08-07T09:17:48;98765.00;;;20.55;66.12
31183;BME280;17813;0.000;0.000;2023-08-07T09:20:15;98763.19;;;20.79;65.04
31183;BME280;17813;0.000;0.000;2023-08-07T09:22:42;98766.50;;;20.97;64.84
31183;BME280;17813;0.000;0.000;2023-08-07T09:25:12;98775.34;;;20.83;62.17
31183;BME280;17813;0.000;0.000;2023-08-07T09:27:40;98773.25;;;20.93;62.98
31183;BME280;17813;0.000;0.000;2023-08-07T09:30:08;98769.41;;;21.41;63.08
31183;BME280;17813;0.000;0.000;2023-08-07T09:32:36;98772.19;;;22.23;59.24
31183;BME280;17813;0.000;0.000;2023-08-07T09:35:05;98761.66;;;22.58;58.73
31183;BME280;17813;0.000;0.000;2023-08-07T09:37:33;98766.03;;;22.44;58.05
31183;BME280;17813;0.000;0.000;2023-08-07T09:40:03;98770.06;;;22.33;58.91
31183;BME280;17813;0.000;0.000;2023-08-07T09:42:33;98775.44;;;22.04;56.49
31183;BME280;17813;0.000;0.000;2023-08-07T09:45:01;98777.75;;;21.32;57.54
31183;BME280;17813;0.000;0.000;2023-08-07T09:47:28;98784.97;;;21.08;58.39
31183;BME280;17813;0.000;0.000;2023-08-07T09:49:55;98785.31;;;21.05;58.82
31183;BME280;17813;0.000;0.000;2023-08-07T09:52:22;98784.16;;;21.31;59.31
31183;BME280;17813;0.000;0.000;2023-08-07T09:54:50;98783.41;;;21.60;58.89
31183;BME280;17813;0.000;0.000;2023-08-07T09:57:22;98778.78;;;21.68;57.14
31183;BME280;17813;0.000;0.000;2023-08-07T09:59:50;98786.84;;;21.54;57.38
31183;BME280;17813;0.000;0.000;2023-08-07T10:02:18;98785.59;;;21.41;57.87
31183;BME280;17813;0.000;0.000;2023-08-07T10:04:46;98794.81;;;21.24;57.83
31183;BME280;17813;0.000;0.000;2023-08-07T10:07:14;98792.25;;;21.00;57.12
31183;BME280;17813;0.000;0.000;2023-08-07T10:09:43;98800.50;;;20.98;57.22
31183;BME280;17813;0.000;0.000;2023-08-07T10:12:11;98804.31;;;20.81;57.75
31183;BME280;17813;0.000;0.000;2023-08-07T10:14:38;98811.16;;;20.52;58.28
31183;BME280;17813;0.000;0.000;2023-08-07T10:17:07;98804.28;;;20.42;59.05
31183;BME280;17813;0.000;0.000;2023-08-07T10:19:34;98815.34;;;20.55;58.90
31183;BME280;17813;0.000;0.000;2023-08-07T10:22:02;98808.28;;;20.54;59.30
31183;BME280;17813;0.000;0.000;2023-08-07T10:24:30;98822.88;;;20.68;58.46
31183;BME280;17813;0.000;0.000;2023-08-07T10:26:58;98818.81;;;20.72;57.98
31183;BME280;17813;0.000;0.000;2023-08-07T10:29:26;98810.31;;;20.52;57.76
31183;BME280;17813;0.000;0.000;2023-08-07T10:31:57;98825.34;;;20.14;57.93
31183;BME280;17813;0.000;0.000;2023-08-07T10:34:25;98822.47;;;20.23;58.92
31183;BME280;17813;0.000;0.000;2023-08-07T10:36:54;98820.44;;;20.42;58.87
31183;BME280;17813;0.000;0.000;2023-08-07T10:39:21;98803.97;;;20.84;58.93
31183;BME280;17813;0.000;0.000;2023-08-07T10:41:53;98812.06;;;20.76;57.32
31183;BME280;17813;0.000;0.000;2023-08-07T10:44:24;98817.44;;;20.84;57.28
31183;BME280;17813;0.000;0.000;2023-08-07T10:46:56;98814.06;;;21.13;57.88
31183;BME280;17813;0.000;0.000;2023-08-07T10:52:14;98813.44;;;22.02;55.27
31183;BME280;17813;0.000;0.000;2023-08-07T10:54:50;98806.84;;;22.20;53.42
31183;BME280;17813;0.000;0.000;2023-08-07T10:57:18;98808.88;;;22.18;52.89
31183;BME280;17813;0.000;0.000;2023-08-07T10:59:50;98813.38;;;21.88;52.64
31183;BME280;17813;0.000;0.000;2023-08-07T11:02:29;98822.53;;;21.41;53.95
31183;BME280;17813;0.000;0.000;2023-08-07T11:04:56;98821.44;;;21.19;54.83
31183;BME280;17813;0.000;0.000;2023-08-07T11:07:24;98826.09;;;21.02;55.43
31183;BME280;17813;0.000;0.000;2023-08-07T11:09:52;98840.53;;;20.70;57.15
31183;BME280;17813;0.000;0.000;2023-08-07T11:12:20;98834.06;;;20.48;58.46
31183;BME280;17813;0.000;0.000;2023-08-07T11:14:47;98834.44;;;20.21;58.97
31183;BME280;17813;0.000;0.000;2023-08-07T11:17:13;98843.53;;;20.04;58.87
31183;BME280;17813;0.000;0.000;2023-08-07T11:19:42;98840.03;;;19.87;59.66
31183;BME280;17813;0.000;0.000;2023-08-07T11:22:12;98827.75;;;19.76;59.75
31183;BME280;17813;0.000;0.000;2023-08-07T11:24:41;98827.25;;;19.81;59.59
31183;BME280;17813;0.000;0.000;2023-08-07T11:27:08;98823.28;;;20.32;59.85
31183;BME280;17813;0.000;0.000;2023-08-07T11:29:35;98808.25;;;21.01;58.87
31183;BME280;17813;0.000;0.000;2023-08-07T11:32:03;98810.03;;;21.63;55.77
31183;BME280;17813;0.000;0.000;2023-08-07T11:34:33;98818.81;;;22.02;53.64
31183;BME280;17813;0.000;0.000;2023-08-07T11:36:59;98816.13;;;21.79;52.64
31183;BME280;17813;0.000;0.000;2023-08-07T11:39:27;98828.69;;;21.49;54.31
31183;BME280;17813;0.000;0.000;2023-08-07T11:41:54;98825.75;;;21.36;55.03
31183;BME280;17813;0.000;0.000;2023-08-07T11:44:23;98819.59;;;21.19;53.88
31183;BME280;17813;0.000;0.000;2023-08-07T11:46:51;98821.13;;;21.22;54.08
31183;BME280;17813;0.000;0.000;2023-08-07T11:49:22;98827.78;;;21.80;53.43
31183;BME280;17813;0.000;0.000;2023-08-07T11:51:52;98812.44;;;22.33;51.77
31183;BME280;17813;0.000;0.000;2023-08-07T11:54:20;98794.16;;;22.64;50.90
31183;BME280;17813;0.000;0.000;2023-08-07T11:56:50;98804.88;;;22.87;52.01
31183;BME280;17813;0.000;0.000;2023-08-07T11:59:29;98808.09;;;23.33;52.85
31183;BME280;17813;0.000;0.000;2023-08-07T12:01:56;98812.16;;;23.59;48.74
31183;BME280;17813;0.000;0.000;2023-08-07T12:04:27;98809.31;;;23.46;48.05
31183;BME280;17813;0.000;0.000;2023-08-07T12:06:58;98819.34;;;23.16;48.77
31183;BME280;17813;0.000;0.000;2023-08-07T12:09:28;98822.31;;;22.85;49.43
31183;BME280;17813;0.000;0.000;2023-08-07T12:11:59;98826.09;;;23.05;51.86
31183;BME280;17813;0.000;0.000;2023-08-07T12:14:32;98828.06;;;23.32;50.07
31183;BME280;17813;0.000;0.000;2023-08-07T12:17:04;98828.06;;;23.47;49.01
31183;BME280;17813;0.000;0.000;2023-08-07T12:19:38;98832.22;;;23.64;49.08
31183;BME280;17813;0.000;0.000;2023-08-07T12:22:10;98833.97;;;24.00;49.24
31183;BME280;17813;0.000;0.000;2023-08-07T12:24:41;98841.22;;;24.21;47.96
31183;BME280;17813;0.000;0.000;2023-08-07T12:27:09;98832.84;;;23.88;46.89
31183;BME280;17813;0.000;0.000;2023-08-07T12:29:36;98846.31;;;23.60;46.89
31183;BME280;17813;0.000;0.000;2023-08-07T12:32:04;98844.72;;;23.65;48.41
31183;BME280;17813;0.000;0.000;2023-08-07T12:34:32;98839.75;;;23.69;48.10
31183;BME280;17813;0.000;0.000;2023-08-07T12:36:59;98834.59;;;23.74;48.09
31183;BME280;17813;0.000;0.000;2023-08-07T12:39:26;98842.31;;;23.77;48.85
31183;BME280;17813;0.000;0.000;2023-08-07T12:41:53;98852.25;;;23.91;48.33
31183;BME280;17813;0.000;0.000;2023-08-07T12:44:22;98832.84;;;23.66;46.43
31183;BME280;17813;0.000;0.000;2023-08-07T12:46:50;98849.34;;;23.71;46.76
31183;BME280;17813;0.000;0.000;2023-08-07T12:49:18;98840.59;;;23.69;46.33
31183;BME280;17813;0.000;0.000;2023-08-07T12:51:46;98847.94;;;23.76;46.86
31183;BME280;17813;0.000;0.000;2023-08-07T12:54:13;98843.41;;;23.83;46.69
31183;BME280;17813;0.000;0.000;2023-08-07T12:56:40;98841.69;;;23.75;46.28
31183;BME280;17813;0.000;0.000;2023-08-07T12:59:07;98844.56;;;23.52;47.13
31183;BME280;17813;0.000;0.000;2023-08-07T13:01:35;98837.47;;;23.36;46.32
31183;BME280;17813;0.000;0.000;2023-08-07T13:04:03;98833.97;;;22.85;47.10
31183;BME280;17813;0.000;0.000;2023-08-07T13:06:32;98846.25;;;22.43;48.71
31183;BME280;17813;0.000;0.000;2023-08-07T13:09:01;98859.09;;;22.27;49.85
31183;BME280;17813;0.000;0.000;2023-08-07T13:11:28;98872.75;;;21.88;50.46
31183;BME280;17813;0.000;0.000;2023-08-07T13:13:56;98878.94;;;21.50;53.07
31183;BME280;17813;0.000;0.000;2023-08-07T13:16:27;98893.25;;;20.81;57.73
31183;BME280;17813;0.000;0.000;2023-08-07T13:18:55;98902.75;;;20.44;59.41
31183;BME280;17813;0.000;0.000;2023-08-07T13:21:47;98897.53;;;19.78;61.95
31183;BME280;17813;0.000;0.000;2023-08-07T13:25:15;98893.00;;;19.70;64.62